sensor_id;sensor_type;location;lat;lon;timestamp;temperature;humidity
49132;DHT22;35149;51.196;6.204;2023-07-31T00:00:14;20.70;62.00
49132;DHT22;35149;51.196;6.204;2023-07-31T00:02:41;20.70;62.10
49132;DHT22;35149;51.196;6.204;2023-07-31T00:05:12;20.70;61.80
49132;DHT22;35149;51.196;6.204;2023-07-31T00:07:39;20.80;62.10
49132;DHT22;35149;51.196;6.204;2023-07-31T00:10:07;20.80;61.90
49132;DHT22;35149;51.196;6.204;2023-07-31T00:12:40;20.80;62.00
49132;DHT22;35149;51.196;6.204;2023-07-31T00:15:12;20.80;63.00
49132;DHT22;35149;51.196;6.204;2023-07-31T00:17:39;20.80;62.30
49132;DHT22;35149;51.196;6.204;2023-07-31T00:20:06;20.70;62.10
49132;DHT22;35149;51.196;6.204;2023-07-31T00:22:38;20.80;62.20
49132;DHT22;35149;51.196;6.204;2023-07-31T00:25:05;20.80;62.00
49132;DHT22;35149;51.196;6.204;2023-07-31T00:27:34;20.80;62.10
49132;DHT22;35149;51.196;6.204;2023-07-31T00:30:01;20.80;62.10
49132;DHT22;35149;51.196;6.204;2023-07-31T00:32:32;20.80;62.10
49132;DHT22;35149;51.196;6.204;2023-07-31T00:35:00;20.80;62.00
49132;DHT22;35149;51.196;6.204;2023-07-31T00:37:26;20.80;62.10
49132;DHT22;35149;51.196;6.204;2023-07-31T00:39:55;20.70;62.10
49132;DHT22;35149;51.196;6.204;2023-07-31T00:42:24;20.80;62.30
49132;DHT22;35149;51.196;6.204;2023-07-31T00:44:50;20.80;61.90
49132;DHT22;35149;51.196;6.204;2023-07-31T00:47:22;20.80;62.10
49132;DHT22;35149;51.196;6.204;2023-07-31T00:49:54;20.80;62.10
49132;DHT22;35149;51.196;6.204;2023-07-31T00:52:21;20.80;62.20
49132;DHT22;35149;51.196;6.204;2023-07-31T00:54:48;20.80;62.10
49132;DHT22;35149;51.196;6.204;2023-07-31T00:57:15;20.80;62.10
49132;DHT22;35149;51.196;6.204;2023-07-31T00:59:44;20.80;62.00
49132;DHT22;35149;51.196;6.204;2023-07-31T01:02:14;20.80;62.20
49132;DHT22;35149;51.196;6.204;2023-07-31T01:04:42;20.80;62.30
49132;DHT22;35149;51.196;6.204;2023-07-31T01:12:09;20.80;61.70
49132;DHT22;35149;51.196;6.204;2023-07-31T01:14:42;20.80;61.80
49132;DHT22;35149;51.196;6.204;2023-07-31T01:17:19;20.80;61.60
49132;DHT22;35149;51.196;6.204;2023-07-31T01:19:46;20.80;61.80
49132;DHT22;35149;51.196;6.204;2023-07-31T01:27:25;20.70;61.60
49132;DHT22;35149;51.196;6.204;2023-07-31T01:29:59;20.70;61.80
49132;DHT22;35149;51.196;6.204;2023-07-31T01:32:28;20.70;62.00
49132;DHT22;35149;51.196;6.204;2023-07-31T01:35:01;20.70;61.90
49132;DHT22;35149;51.196;6.204;2023-07-31T01:37:28;20.70;61.60
49132;DHT22;35149;51.196;6.204;2023-07-31T01:40:01;20.70;61.80
49132;DHT22;35149;51.196;6.204;2023-07-31T01:42:27;20.70;61.80
49132;DHT22;35149;51.196;6.204;2023-07-31T01:44:55;20.70;61.60
49132;DHT22;35149;51.196;6.204;2023-07-31T01:47:25;20.70;61.80
49132;DHT22;35149;51.196;6.204;2023-07-31T01:49:54;20.70;61.80
49132;DHT22;35149;51.196;6.204;2023-07-31T01:52:22;20.70;61.90
49132;DHT22;35149;51.196;6.204;2023-07-31T01:54:49;20.70;61.80
49132;DHT22;35149;51.196;6.204;2023-07-31T01:57:18;20.70;61.80
49132;DHT22;35149;51.196;6.204;2023-07-31T01:59:45;20.70;61.90
49132;DHT22;35149;51.196;6.204;2023-07-31T02:02:16;20.60;61.80
49132;DHT22;35149;51.196;6.204;2023-07-31T02:04:50;20.70;62.10
49132;DHT22;35149;51.196;6.204;2023-07-31T02:07:17;20.60;62.00
49132;DHT22;35149;51.196;6.204;2023-07-31T02:09:46;20.60;62.10
49132;DHT22;35149;51.196;6.204;2023-07-31T02:12:17;20.60;62.20
49132;DHT22;35149;51.196;6.204;2023-07-31T02:14:44;20.60;62.20
49132;DHT22;35149;51.196;6.204;2023-07-31T02:17:11;20.60;62.20
49132;DHT22;35149;51.196;6.204;2023-07-31T02:19:37;20.60;62.50
49132;DHT22;35149;51.196;6.204;2023-07-31T02:22:09;20.60;62.20
49132;DHT22;35149;51.196;6.204;2023-07-31T02:24:35;20.60;62.30
49132;DHT22;35149;51.196;6.204;2023-07-31T02:27:05;20.60;62.40
49132;DHT22;35149;51.196;6.204;2023-07-31T02:29:36;20.60;62.20
49132;DHT22;35149;51.196;6.204;2023-07-31T02:32:05;20.60;62.30
49132;DHT22;35149;51.196;6.204;2023-07-31T02:34:32;20.60;62.50
49132;DHT22;35149;51.196;6.204;2023-07-31T02:36:59;20.60;62.60
49132;DHT22;35149;51.196;6.204;2023-07-31T02:39:28;20.60;62.70
49132;DHT22;35149;51.196;6.204;2023-07-31T02:41:54;20.60;62.80
49132;DHT22;35149;51.196;6.204;2023-07-31T02:44:26;20.70;62.80
49132;DHT22;35149;51.196;6.204;2023-07-31T02:46:58;20.70;62.60
49132;DHT22;35149;51.196;6.204;2023-07-31T02:49:24;20.70;62.60
49132;DHT22;35149;51.196;6.204;2023-07-31T02:51:51;20.70;62.50
49132;DHT22;35149;51.196;6.204;2023-07-31T02:54:17;20.70;62.40
49132;DHT22;35149;51.196;6.204;2023-07-31T02:56:47;20.70;62.60
49132;DHT22;35149;51.196;6.204;2023-07-31T02:59:14;20.70;62.50
49132;DHT22;35149;51.196;6.204;2023-07-31T03:01:41;20.70;62.70
49132;DHT22;35149;51.196;6.204;2023-07-31T03:04:10;20.70;62.80
49132;DHT22;35149;51.196;6.204;2023-07-31T03:06:37;20.70;62.70
49132;DHT22;35149;51.196;6.204;2023-07-31T03:09:04;20.80;62.70
49132;DHT22;35149;51.196;6.204;2023-07-31T03:11:32;20.80;62.70
49132;DHT22;35149;51.196;6.204;2023-07-31T03:14:01;20.80;62.30
49132;DHT22;35149;51.196;6.204;2023-07-31T03:16:31;20.80;62.90
49132;DHT22;35149;51.196;6.204;2023-07-31T03:18:57;20.80;62.70
49132;DHT22;35149;51.196;6.204;2023-07-31T03:21:27;20.80;62.80
49132;DHT22;35149;51.196;6.204;2023-07-31T03:24:00;20.80;62.70
49132;DHT22;35149;51.196;6.204;2023-07-31T03:26:28;20.80;63.20
49132;DHT22;35149;51.196;6.204;2023-07-31T03:28:56;20.80;62.60
49132;DHT22;35149;51.196;6.204;2023-07-31T03:31:22;20.80;62.60
49132;DHT22;35149;51.196;6.204;2023-07-31T03:33:51;20.80;62.60
49132;DHT22;35149;51.196;6.204;2023-07-31T03:36:25;20.80;62.40
49132;DHT22;35149;51.196;6.204;2023-07-31T03:38:53;20.80;62.60
49132;DHT22;35149;51.196;6.204;2023-07-31T03:41:20;20.90;62.70
49132;DHT22;35149;51.196;6.204;2023-07-31T03:43:49;20.80;62.60
49132;DHT22;35149;51.196;6.204;2023-07-31T03:46:22;20.80;62.60
49132;DHT22;35149;51.196;6.204;2023-07-31T03:48:54;20.90;62.70
49132;DHT22;35149;51.196;6.204;2023-07-31T03:51:23;20.80;62.60
49132;DHT22;35149;51.196;6.204;2023-07-31T03:53:50;20.90;62.50
49132;DHT22;35149;51.196;6.204;2023-07-31T03:56:16;20.90;62.50
49132;DHT22;35149;51.196;6.204;2023-07-31T03:58:45;20.90;62.50
49132;DHT22;35149;51.196;6.204;2023-07-31T04:01:13;20.90;62.80
49132;DHT22;35149;51.196;6.204;2023-07-31T04:03:40;20.90;62.80
49132;DHT22;35149;51.196;6.204;2023-07-31T04:06:06;20.90;63.00
49132;DHT22;35149;51.196;6.204;2023-07-31T04:08:35;20.90;63.00
49132;DHT22;35149;51.196;6.204;2023-07-31T04:11:02;20.90;63.00
49132;DHT22;35149;51.196;6.204;2023-07-31T04:13:29;20.90;63.10
49132;DHT22;35149;51.196;6.204;2023-07-31T04:15:58;20.90;62.80
49132;DHT22;35149;51.196;6.204;2023-07-31T04:18:25;20.90;62.90
49132;DHT22;35149;51.196;6.204;2023-07-31T04:20:56;20.90;62.90
49132;DHT22;35149;51.196;6.204;2023-07-31T04:23:27;20.90;63.10
49132;DHT22;35149;51.196;6.204;2023-07-31T04:26:01;20.90;63.10
49132;DHT22;35149;51.196;6.204;2023-07-31T04:28:28;21.00;62.90
49132;DHT22;35149;51.196;6.204;2023-07-31T04:30:55;21.00;63.10
49132;DHT22;35149;51.196;6.204;2023-07-31T04:33:21;21.00;63.60
49132;DHT22;35149;51.196;6.204;2023-07-31T04:35:50;21.00;63.20
49132;DHT22;35149;51.196;6.204;2023-07-31T04:38:21;21.00;63.20
49132;DHT22;35149;51.196;6.204;2023-07-31T04:40:55;21.00;63.10
49132;DHT22;35149;51.196;6.204;2023-07-31T04:43:24;21.00;63.10
49132;DHT22;35149;51.196;6.204;2023-07-31T04:45:52;21.00;63.10
49132;DHT22;35149;51.196;6.204;2023-07-31T04:48:20;21.00;63.40
49132;DHT22;35149;51.196;6.204;2023-07-31T04:50:48;21.10;63.30
49132;DHT22;35149;51.196;6.204;2023-07-31T04:53:18;21.10;63.30
49132;DHT22;35149;51.196;6.204;2023-07-31T04:55:45;21.10;63.20
49132;DHT22;35149;51.196;6.204;2023-07-31T04:58:11;21.10;63.20
49132;DHT22;35149;51.196;6.204;2023-07-31T05:00:38;21.20;63.20
49132;DHT22;35149;51.196;6.204;2023-07-31T05:03:04;21.10;63.40
49132;DHT22;35149;51.196;6.204;2023-07-31T05:05:31;21.20;63.60
49132;DHT22;35149;51.196;6.204;2023-07-31T05:07:58;21.20;63.20
49132;DHT22;35149;51.196;6.204;2023-07-31T05:10:27;21.20;63.20
49132;DHT22;35149;51.196;6.204;2023-07-31T05:12:54;21.20;63.20
49132;DHT22;35149;51.196;6.204;2023-07-31T05:15:20;21.20;63.30
49132;DHT22;35149;51.196;6.204;2023-07-31T05:17:47;21.30;63.00
49132;DHT22;35149;51.196;6.204;2023-07-31T05:20:13;21.30;63.10
49132;DHT22;35149;51.196;6.204;2023-07-31T05:22:41;21.30;62.90
49132;DHT22;35149;51.196;6.204;2023-07-31T05:25:10;21.30;63.10
49132;DHT22;35149;51.196;6.204;2023-07-31T05:27:36;21.30;63.10
49132;DHT22;35149;51.196;6.204;2023-07-31T05:30:03;21.30;63.00
49132;DHT22;35149;51.196;6.204;2023-07-31T05:32:30;21.40;63.00
49132;DHT22;35149;51.196;6.204;2023-07-31T05:34:57;21.30;62.90
49132;DHT22;35149;51.196;6.204;2023-07-31T05:37:26;21.30;63.00
49132;DHT22;35149;51.196;6.204;2023-07-31T05:39:55;21.30;62.90
49132;DHT22;35149;51.196;6.204;2023-07-31T05:42:21;21.30;63.00
49132;DHT22;35149;51.196;6.204;2023-07-31T05:44:48;21.20;62.80
49132;DHT22;35149;51.196;6.204;2023-07-31T05:47:17;21.20;63.00
49132;DHT22;35149;51.196;6.204;2023-07-31T05:49:46;21.10;63.10
49132;DHT22;35149;51.196;6.204;2023-07-31T05:52:12;21.10;63.30
49132;DHT22;35149;51.196;6.204;2023-07-31T05:54:39;21.10;63.60
49132;DHT22;35149;51.196;6.204;2023-07-31T05:57:06;21.00;63.60
49132;DHT22;35149;51.196;6.204;2023-07-31T05:59:32;21.00;63.70
49132;DHT22;35149;51.196;6.204;2023-07-31T06:02:00;21.00;64.20
49132;DHT22;35149;51.196;6.204;2023-07-31T06:04:29;20.90;64.10
49132;DHT22;35149;51.196;6.204;2023-07-31T06:06:57;20.90;64.00
49132;DHT22;35149;51.196;6.204;2023-07-31T06:09:23;20.90;64.10
49132;DHT22;35149;51.196;6.204;2023-07-31T06:11:52;20.90;63.80
49132;DHT22;35149;51.196;6.204;2023-07-31T06:14:19;20.80;64.20
49132;DHT22;35149;51.196;6.204;2023-07-31T06:16:49;20.80;64.20
49132;DHT22;35149;51.196;6.204;2023-07-31T06:19:18;20.90;64.40
49132;DHT22;35149;51.196;6.204;2023-07-31T06:21:47;20.90;64.40
49132;DHT22;35149;51.196;6.204;2023-07-31T06:24:13;20.80;64.30
49132;DHT22;35149;51.196;6.204;2023-07-31T06:26:45;20.90;64.50
49132;DHT22;35149;51.196;6.204;2023-07-31T06:29:11;20.90;64.30
49132;DHT22;35149;51.196;6.204;2023-07-31T06:31:40;20.90;64.20
49132;DHT22;35149;51.196;6.204;2023-07-31T06:34:09;20.90;64.50
49132;DHT22;35149;51.196;6.204;2023-07-31T06:36:36;20.90;64.60
49132;DHT22;35149;51.196;6.204;2023-07-31T06:39:08;20.90;64.50
49132;DHT22;35149;51.196;6.204;2023-07-31T06:41:35;20.90;64.40
49132;DHT22;35149;51.196;6.204;2023-07-31T06:44:05;21.00;64.50
49132;DHT22;35149;51.196;6.204;2023-07-31T06:46:35;20.90;64.60
49132;DHT22;35149;51.196;6.204;2023-07-31T06:49:10;20.90;64.50
49132;DHT22;35149;51.196;6.204;2023-07-31T06:54:00;20.90;64.30
49132;DHT22;35149;51.196;6.204;2023-07-31T06:56:27;21.00;64.70
49132;DHT22;35149;51.196;6.204;2023-07-31T06:58:58;20.90;64.70
49132;DHT22;35149;51.196;6.204;2023-07-31T07:01:31;20.90;64.70
49132;DHT22;35149;51.196;6.204;2023-07-31T07:04:01;20.90;64.80
49132;DHT22;35149;51.196;6.204;2023-07-31T07:06:29;20.90;64.80
49132;DHT22;35149;51.196;6.204;2023-07-31T07:08:55;20.90;64.50
49132;DHT22;35149;51.196;6.204;2023-07-31T07:11:22;20.80;64.80
49132;DHT22;35149;51.196;6.204;2023-07-31T07:13:48;20.80;65.20
49132;DHT22;35149;51.196;6.204;2023-07-31T07:16:15;20.80;65.30
49132;DHT22;35149;51.196;6.204;2023-07-31T07:18:42;20.80;64.40
49132;DHT22;35149;51.196;6.204;2023-07-31T07:21:24;20.70;65.10
49132;DHT22;35149;51.196;6.204;2023-07-31T07:23:50;20.60;65.50
49132;DHT22;35149;51.196;6.204;2023-07-31T07:26:19;20.60;65.80
49132;DHT22;35149;51.196;6.204;2023-07-31T07:28:46;20.50;65.60
49132;DHT22;35149;51.196;6.204;2023-07-31T07:31:14;20.50;65.20
49132;DHT22;35149;51.196;6.204;2023-07-31T07:33:43;20.40;65.90
49132;DHT22;35149;51.196;6.204;2023-07-31T07:36:10;20.40;65.80
49132;DHT22;35149;51.196;6.204;2023-07-31T07:38:39;20.40;66.10
49132;DHT22;35149;51.196;6.204;2023-07-31T07:41:05;20.40;66.50
49132;DHT22;35149;51.196;6.204;2023-07-31T07:43:32;20.40;66.80
49132;DHT22;35149;51.196;6.204;2023-07-31T07:46:01;20.40;66.90
49132;DHT22;35149;51.196;6.204;2023-07-31T07:48:30;20.40;66.40
49132;DHT22;35149;51.196;6.204;2023-07-31T07:51:00;20.40;66.20
49132;DHT22;35149;51.196;6.204;2023-07-31T07:53:27;20.40;66.60
49132;DHT22;35149;51.196;6.204;2023-07-31T07:55:55;20.50;66.90
49132;DHT22;35149;51.196;6.204;2023-07-31T07:58:22;20.50;66.10
49132;DHT22;35149;51.196;6.204;2023-07-31T08:00:50;20.50;66.80
49132;DHT22;35149;51.196;6.204;2023-07-31T08:03:17;20.50;66.00
49132;DHT22;35149;51.196;6.204;2023-07-31T08:05:46;20.50;66.10
49132;DHT22;35149;51.196;6.204;2023-07-31T08:08:22;20.50;66.50
49132;DHT22;35149;51.196;6.204;2023-07-31T08:10:51;20.50;66.50
49132;DHT22;35149;51.196;6.204;2023-07-31T08:13:20;20.50;66.50
49132;DHT22;35149;51.196;6.204;2023-07-31T08:15:49;20.60;66.70
49132;DHT22;35149;51.196;6.204;2023-07-31T08:18:16;20.50;66.60
49132;DHT22;35149;51.196;6.204;2023-07-31T08:20:44;20.60;66.40
49132;DHT22;35149;51.196;6.204;2023-07-31T08:23:11;20.60;66.80
49132;DHT22;35149;51.196;6.204;2023-07-31T08:25:40;20.70;66.80
49132;DHT22;35149;51.196;6.204;2023-07-31T08:28:06;20.70;66.90
49132;DHT22;35149;51.196;6.204;2023-07-31T08:30:36;20.80;66.60
49132;DHT22;35149;51.196;6.204;2023-07-31T08:33:05;20.70;66.50
49132;DHT22;35149;51.196;6.204;2023-07-31T08:35:32;20.80;66.60
49132;DHT22;35149;51.196;6.204;2023-07-31T08:37:58;20.80;68.00
49132;DHT22;35149;51.196;6.204;2023-07-31T08:40:28;20.80;67.20
49132;DHT22;35149;51.196;6.204;2023-07-31T08:42:55;20.80;66.30
49132;DHT22;35149;51.196;6.204;2023-07-31T08:45:28;20.90;66.70
49132;DHT22;35149;51.196;6.204;2023-07-31T08:47:58;20.90;66.10
49132;DHT22;35149;51.196;6.204;2023-07-31T08:50:25;20.80;66.40
49132;DHT22;35149;51.196;6.204;2023-07-31T08:52:51;20.90;66.50
49132;DHT22;35149;51.196;6.204;2023-07-31T08:55:18;20.80;66.10
49132;DHT22;35149;51.196;6.204;2023-07-31T08:57:58;20.80;65.90
49132;DHT22;35149;51.196;6.204;2023-07-31T09:00:30;20.80;66.60
49132;DHT22;35149;51.196;6.204;2023-07-31T09:02:59;20.80;66.70
49132;DHT22;35149;51.196;6.204;2023-07-31T09:05:26;20.80;66.90
49132;DHT22;35149;51.196;6.204;2023-07-31T09:07:53;20.90;66.70
49132;DHT22;35149;51.196;6.204;2023-07-31T09:10:26;20.80;66.70
49132;DHT22;35149;51.196;6.204;2023-07-31T09:12:53;20.90;67.20
49132;DHT22;35149;51.196;6.204;2023-07-31T09:15:19;20.80;66.60
49132;DHT22;35149;51.196;6.204;2023-07-31T09:18:05;20.80;66.40
49132;DHT22;35149;51.196;6.204;2023-07-31T09:20:35;20.80;66.60
49132;DHT22;35149;51.196;6.204;2023-07-31T09:23:06;20.80;66.90
49132;DHT22;35149;51.196;6.204;2023-07-31T09:25:36;20.80;66.60
49132;DHT22;35149;51.196;6.204;2023-07-31T09:28:07;20.90;66.80
49132;DHT22;35149;51.196;6.204;2023-07-31T09:30:51;20.80;66.20
49132;DHT22;35149;51.196;6.204;2023-07-31T09:33:18;20.90;66.90
49132;DHT22;35149;51.196;6.204;2023-07-31T09:35:46;20.80;66.50
49132;DHT22;35149;51.196;6.204;2023-07-31T09:38:14;20.80;67.00
49132;DHT22;35149;51.196;6.204;2023-07-31T09:40:42;20.80;66.80
49132;DHT22;35149;51.196;6.204;2023-07-31T09:43:12;20.80;66.80
49132;DHT22;35149;51.196;6.204;2023-07-31T09:45:44;20.80;66.80
49132;DHT22;35149;51.196;6.204;2023-07-31T09:48:12;20.80;67.10
49132;DHT22;35149;51.196;6.204;2023-07-31T09:50:41;20.80;66.70
49132;DHT22;35149;51.196;6.204;2023-07-31T09:53:08;20.90;66.60
49132;DHT22;35149;51.196;6.204;2023-07-31T09:55:36;20.90;67.40
49132;DHT22;35149;51.196;6.204;2023-07-31T09:58:04;20.90;67.20
49132;DHT22;35149;51.196;6.204;2023-07-31T10:00:31;21.00;67.60
49132;DHT22;35149;51.196;6.204;2023-07-31T10:03:02;21.00;67.60
49132;DHT22;35149;51.196;6.204;2023-07-31T10:05:36;21.10;67.10
49132;DHT22;35149;51.196;6.204;2023-07-31T10:08:04;21.20;67.30
49132;DHT22;35149;51.196;6.204;2023-07-31T10:10:32;21.30;67.60
49132;DHT22;35149;51.196;6.204;2023-07-31T10:12:59;21.40;67.80
49132;DHT22;35149;51.196;6.204;2023-07-31T10:15:26;21.50;67.70
49132;DHT22;35149;51.196;6.204;2023-07-31T10:17:53;21.60;67.30
49132;DHT22;35149;51.196;6.204;2023-07-31T10:20:20;21.70;67.20
49132;DHT22;35149;51.196;6.204;2023-07-31T10:22:47;21.70;67.00
49132;DHT22;35149;51.196;6.204;2023-07-31T10:26:20;21.80;66.20
49132;DHT22;35149;51.196;6.204;2023-07-31T10:28:50;21.80;67.70
49132;DHT22;35149;51.196;6.204;2023-07-31T10:31:19;21.80;68.10
49132;DHT22;35149;51.196;6.204;2023-07-31T10:33:46;21.80;68.50
49132;DHT22;35149;51.196;6.204;2023-07-31T10:36:17;21.80;68.20
49132;DHT22;35149;51.196;6.204;2023-07-31T10:38:45;21.80;68.50
49132;DHT22;35149;51.196;6.204;2023-07-31T10:41:12;21.80;68.50
49132;DHT22;35149;51.196;6.204;2023-07-31T10:43:38;21.80;68.80
49132;DHT22;35149;51.196;6.204;2023-07-31T10:46:12;21.80;68.80
49132;DHT22;35149;51.196;6.204;2023-07-31T10:48:40;21.80;69.10
49132;DHT22;35149;51.196;6.204;2023-07-31T10:51:09;21.90;68.90
49132;DHT22;35149;51.196;6.204;2023-07-31T10:53:36;22.00;69.00
49132;DHT22;35149;51.196;6.204;2023-07-31T10:56:05;22.00;68.80
49132;DHT22;35149;51.196;6.204;2023-07-31T10:58:32;22.00;68.60
49132;DHT22;35149;51.196;6.204;2023-07-31T11:01:01;22.10;68.70
49132;DHT22;35149;51.196;6.204;2023-07-31T11:03:49;22.10;68.60
49132;DHT22;35149;51.196;6.204;2023-07-31T11:06:16;22.10;68.80
49132;DHT22;35149;51.196;6.204;2023-07-31T11:08:47;22.20;68.70
49132;DHT22;35149;51.196;6.204;2023-07-31T11:11:15;22.20;68.50
49132;DHT22;35149;51.196;6.204;2023-07-31T11:13:49;22.20;68.00
49132;DHT22;35149;51.196;6.204;2023-07-31T11:16:18;22.20;68.00
49132;DHT22;35149;51.196;6.204;2023-07-31T11:18:46;22.20;67.90
49132;DHT22;35149;51.196;6.204;2023-07-31T11:21:21;22.10;68.00
49132;DHT22;35149;51.196;6.204;2023-07-31T11:23:50;22.10;68.40
49132;DHT22;35149;51.196;6.204;2023-07-31T11:26:17;22.10;68.10
49132;DHT22;35149;51.196;6.204;2023-07-31T11:28:47;22.10;68.20
49132;DHT22;35149;51.196;6.204;2023-07-31T11:31:14;22.10;68.40
49132;DHT22;35149;51.196;6.204;2023-07-31T11:33:41;22.10;68.60
49132;DHT22;35149;51.196;6.204;2023-07-31T11:36:16;22.20;68.40
49132;DHT22;35149;51.196;6.204;2023-07-31T11:38:43;22.20;68.60
49132;DHT22;35149;51.196;6.204;2023-07-31T11:41:10;22.20;68.20
49132;DHT22;35149;51.196;6.204;2023-07-31T11:43:39;22.20;68.00
49132;DHT22;35149;51.196;6.204;2023-07-31T11:46:06;22.20;68.00
49132;DHT22;35149;51.196;6.204;2023-07-31T11:48:37;22.20;68.10
49132;DHT22;35149;51.196;6.204;2023-07-31T11:51:06;22.20;68.00
49132;DHT22;35149;51.196;6.204;2023-07-31T11:56:10;22.20;68.20
49132;DHT22;35149;51.196;6.204;2023-07-31T11:58:39;22.20;68.70
49132;DHT22;35149;51.196;6.204;2023-07-31T12:01:06;22.20;68.20
49132;DHT22;35149;51.196;6.204;2023-07-31T12:03:36;22.20;68.10
49132;DHT22;35149;51.196;6.204;2023-07-31T12:06:03;22.20;68.30
49132;DHT22;35149;51.196;6.204;2023-07-31T12:08:30;22.20;68.40
49132;DHT22;35149;51.196;6.204;2023-07-31T12:11:05;22.20;68.80
49132;DHT22;35149;51.196;6.204;2023-07-31T12:13:33;22.30;68.70
49132;DHT22;35149;51.196;6.204;2023-07-31T12:16:01;22.30;68.70
49132;DHT22;35149;51.196;6.204;2023-07-31T12:18:34;22.30;68.60
49132;DHT22;35149;51.196;6.204;2023-07-31T12:21:02;22.30;68.80
49132;DHT22;35149;51.196;6.204;2023-07-31T12:23:31;22.40;68.80
49132;DHT22;35149;51.196;6.204;2023-07-31T12:26:14;22.40;68.70
49132;DHT22;35149;51.196;6.204;2023-07-31T12:28:49;22.40;68.60
49132;DHT22;35149;51.196;6.204;2023-07-31T12:31:17;22.40;68.40
49132;DHT22;35149;51.196;6.204;2023-07-31T12:33:46;22.40;68.30
49132;DHT22;35149;51.196;6.204;2023-07-31T12:36:15;22.40;68.40
49132;DHT22;35149;51.196;6.204;2023-07-31T12:38:42;22.40;68.40
49132;DHT22;35149;51.196;6.204;2023-07-31T12:41:09;22.40;68.80
49132;DHT22;35149;51.196;6.204;2023-07-31T12:43:39;22.40;68.60
49132;DHT22;35149;51.196;6.204;2023-07-31T12:46:07;22.40;68.60
49132;DHT22;35149;51.196;6.204;2023-07-31T12:48:38;22.40;69.00
49132;DHT22;35149;51.196;6.204;2023-07-31T12:51:05;22.40;68.70
49132;DHT22;35149;51.196;6.204;2023-07-31T12:53:33;22.40;68.80
49132;DHT22;35149;51.196;6.204;2023-07-31T12:56:00;22.50;68.80
49132;DHT22;35149;51.196;6.204;2023-07-31T12:58:27;22.50;69.30
49132;DHT22;35149;51.196;6.204;2023-07-31T13:00:53;22.50;70.00
49132;DHT22;35149;51.196;6.204;2023-07-31T13:03:20;22.60;69.30
49132;DHT22;35149;51.196;6.204;2023-07-31T13:05:50;22.70;69.50
49132;DHT22;35149;51.196;6.204;2023-07-31T13:08:17;22.80;69.00
49132;DHT22;35149;51.196;6.204;2023-07-31T13:10:44;23.00;68.90
49132;DHT22;35149;51.196;6.204;2023-07-31T13:13:11;23.10;68.80
49132;DHT22;35149;51.196;6.204;2023-07-31T13:15:37;23.20;67.90
49132;DHT22;35149;51.196;6.204;2023-07-31T13:18:04;23.40;67.50
49132;DHT22;35149;51.196;6.204;2023-07-31T13:20:31;23.50;67.10
49132;DHT22;35149;51.196;6.204;2023-07-31T13:22:58;23.50;66.50
49132;DHT22;35149;51.196;6.204;2023-07-31T13:25:24;23.60;66.10
49132;DHT22;35149;51.196;6.204;2023-07-31T13:27:51;23.70;65.80
49132;DHT22;35149;51.196;6.204;2023-07-31T13:30:18;23.80;65.30
49132;DHT22;35149;51.196;6.204;2023-07-31T13:32:44;23.80;64.80
49132;DHT22;35149;51.196;6.204;2023-07-31T13:35:11;23.90;64.90
49132;DHT22;35149;51.196;6.204;2023-07-31T13:37:44;23.90;64.80
49132;DHT22;35149;51.196;6.204;2023-07-31T13:40:10;24.00;65.00
49132;DHT22;35149;51.196;6.204;2023-07-31T13:42:37;24.00;64.80
49132;DHT22;35149;51.196;6.204;2023-07-31T13:45:04;24.00;64.60
49132;DHT22;35149;51.196;6.204;2023-07-31T13:47:33;23.90;64.10
49132;DHT22;35149;51.196;6.204;2023-07-31T13:50:00;23.80;63.80
49132;DHT22;35149;51.196;6.204;2023-07-31T13:52:27;23.80;64.00
49132;DHT22;35149;51.196;6.204;2023-07-31T13:54:54;23.80;63.90
49132;DHT22;35149;51.196;6.204;2023-07-31T13:57:20;23.70;63.90
49132;DHT22;35149;51.196;6.204;2023-07-31T13:59:47;23.70;64.10
49132;DHT22;35149;51.196;6.204;2023-07-31T14:02:14;23.60;64.10
49132;DHT22;35149;51.196;6.204;2023-07-31T14:04:41;23.60;64.50
49132;DHT22;35149;51.196;6.204;2023-07-31T14:07:08;23.50;64.90
49132;DHT22;35149;51.196;6.204;2023-07-31T14:09:35;23.50;64.90
49132;DHT22;35149;51.196;6.204;2023-07-31T14:12:01;23.50;65.00
49132;DHT22;35149;51.196;6.204;2023-07-31T14:14:31;23.50;65.20
49132;DHT22;35149;51.196;6.204;2023-07-31T14:17:01;23.50;65.70
49132;DHT22;35149;51.196;6.204;2023-07-31T14:19:28;23.40;65.60
49132;DHT22;35149;51.196;6.204;2023-07-31T14:21:57;23.40;66.20
49132;DHT22;35149;51.196;6.204;2023-07-31T14:24:39;23.40;66.60
49132;DHT22;35149;51.196;6.204;2023-07-31T14:27:09;23.30;66.90
49132;DHT22;35149;51.196;6.204;2023-07-31T14:29:36;23.20;66.90
49132;DHT22;35149;51.196;6.204;2023-07-31T14:32:06;23.20;66.20
49132;DHT22;35149;51.196;6.204;2023-07-31T14:34:32;23.10;66.70
49132;DHT22;35149;51.196;6.204;2023-07-31T14:36:59;23.00;66.30
49132;DHT22;35149;51.196;6.204;2023-07-31T14:39:26;22.90;66.30
49132;DHT22;35149;51.196;6.204;2023-07-31T14:41:55;22.90;66.50
49132;DHT22;35149;51.196;6.204;2023-07-31T14:44:21;22.80;66.60
49132;DHT22;35149;51.196;6.204;2023-07-31T14:46:48;22.80;66.80
49132;DHT22;35149;51.196;6.204;2023-07-31T14:49:15;22.80;67.00
49132;DHT22;35149;51.196;6.204;2023-07-31T14:51:42;22.70;67.30
49132;DHT22;35149;51.196;6.204;2023-07-31T14:54:11;22.70;67.00
49132;DHT22;35149;51.196;6.204;2023-07-31T14:56:38;22.70;67.00
49132;DHT22;35149;51.196;6.204;2023-07-31T14:59:05;22.70;66.70
49132;DHT22;35149;51.196;6.204;2023-07-31T15:01:31;22.80;66.60
49132;DHT22;35149;51.196;6.204;2023-07-31T15:03:58;22.70;66.70
49132;DHT22;35149;51.196;6.204;2023-07-31T15:06:25;22.70;66.40
49132;DHT22;35149;51.196;6.204;2023-07-31T15:08:55;22.70;66.30
49132;DHT22;35149;51.196;6.204;2023-07-31T15:11:22;22.70;66.50
49132;DHT22;35149;51.196;6.204;2023-07-31T15:13:48;22.70;66.80
49132;DHT22;35149;51.196;6.204;2023-07-31T15:16:18;22.70;67.20
49132;DHT22;35149;51.196;6.204;2023-07-31T15:18:44;22.60;67.30
49132;DHT22;35149;51.196;6.204;2023-07-31T15:21:11;22.60;67.60
49132;DHT22;35149;51.196;6.204;2023-07-31T15:23:38;22.50;68.00
49132;DHT22;35149;51.196;6.204;2023-07-31T15:26:05;22.50;68.50
49132;DHT22;35149;51.196;6.204;2023-07-31T15:28:32;22.50;68.60
49132;DHT22;35149;51.196;6.204;2023-07-31T15:31:01;22.50;68.80
49132;DHT22;35149;51.196;6.204;2023-07-31T15:33:28;22.40;68.60
49132;DHT22;35149;51.196;6.204;2023-07-31T15:35:54;22.40;68.70
49132;DHT22;35149;51.196;6.204;2023-07-31T15:38:22;22.30;68.70
49132;DHT22;35149;51.196;6.204;2023-07-31T15:40:49;22.30;69.10
49132;DHT22;35149;51.196;6.204;2023-07-31T15:43:17;22.20;69.20
49132;DHT22;35149;51.196;6.204;2023-07-31T15:45:44;22.20;69.40
49132;DHT22;35149;51.196;6.204;2023-07-31T15:48:11;22.10;69.50
49132;DHT22;35149;51.196;6.204;2023-07-31T15:50:38;22.10;69.90
49132;DHT22;35149;51.196;6.204;2023-07-31T15:53:04;22.00;70.40